Groveland, New York
Current Conditions -  °F | °C
As of 1:54 PM on Friday 24 Oct 2014 (Local Time) from KDSV Reporting Station
Clear Clear  
Wind Chill: 62°   Ceiling: Unl
Heat Index: 62°   Visibility: 10mi
Dew Point: 31°   Wind: 10mph
Humidity: 31%   Direction: 320°NW
Pressure: 29.95"   Gusts: NA
Location:  42.66°N, 77.77°W
Report Text: KDSV 241754Z AUTO 32009KT 10SM CLR 17/M01 A2995 RMK AO2 SLP149 T01671006 10167 20067 58020
Loading
Personal Weather Stations






























Interactive Weather Map
Tropical Storm Tracking
New forecast layout! Learn more

10-Day Weather Forecast

Advertisements
Track Severe Weather on mobile